createdAt,value
2018-12-19T00:02:14.074Z,89.33
2018-12-19T00:04:47.317Z,89.25
2018-12-19T00:07:19.435Z,89.63
2018-12-19T00:09:48.790Z,88.86
2018-12-19T00:12:18.178Z,89.43
2018-12-19T00:14:47.596Z,88.97
2018-12-19T00:17:19.257Z,89.36
2018-12-19T00:19:53.757Z,88.90
2018-12-19T00:22:23.899Z,88.63
2018-12-19T00:24:53.598Z,89.43
2018-12-19T00:27:25.338Z,88.58
2018-12-19T00:29:57.994Z,89.21
2018-12-19T00:32:29.645Z,88.39
2018-12-19T00:35:00.917Z,88.04
2018-12-19T00:37:30.143Z,88.63
2018-12-19T00:40:00.071Z,88.48
2018-12-19T00:42:31.340Z,88.25
2018-12-19T00:45:01.455Z,88.29
2018-12-19T00:47:31.157Z,88.51
2018-12-19T00:50:01.693Z,88.16
2018-12-19T00:52:31.052Z,88.14
2018-12-19T00:55:02.764Z,87.99
2018-12-19T00:57:32.861Z,88.26
2018-12-19T01:00:02.120Z,88.11
2018-12-19T01:02:39.547Z,87.33
2018-12-19T01:05:09.632Z,87.67
2018-12-19T01:07:39.215Z,87.71
2018-12-19T01:10:08.551Z,87.42
2018-12-19T01:12:38.544Z,87.13
2018-12-19T01:15:08.747Z,87.26
2018-12-19T01:17:39.383Z,86.73
2018-12-19T01:20:11.443Z,86.78
2018-12-19T01:22:42.681Z,86.95
2018-12-19T01:25:12.208Z,86.98
2018-12-19T01:27:42.249Z,86.77
2018-12-19T01:30:13.463Z,86.50
2018-12-19T01:32:43.878Z,86.38
2018-12-19T01:35:14.067Z,86.56
2018-12-19T01:37:43.655Z,87.04
2018-12-19T01:40:14.026Z,86.28
2018-12-19T01:42:43.610Z,86.08
2018-12-19T01:45:14.462Z,87.08
2018-12-19T01:47:44.181Z,86.18
2018-12-19T01:50:14.347Z,86.55
2018-12-19T01:52:43.586Z,86.42
2018-12-19T01:55:13.196Z,86.33
2018-12-19T01:57:43.296Z,86.20
2018-12-19T02:00:12.575Z,86.81
2018-12-19T02:02:45.418Z,86.60
2018-12-19T02:05:15.153Z,86.54
2018-12-19T02:07:46.320Z,86.75
2018-12-19T02:10:17.198Z,86.76
2018-12-19T02:12:48.294Z,86.60
2018-12-19T02:15:17.657Z,86.59
2018-12-19T02:17:49.807Z,85.90
2018-12-19T02:20:19.096Z,85.75
2018-12-19T02:22:51.797Z,86.70
2018-12-19T02:25:21.560Z,86.12
2018-12-19T02:27:50.772Z,86.04
2018-12-19T02:30:21.571Z,86.36
2018-12-19T02:32:50.952Z,85.77
2018-12-19T02:35:21.031Z,85.95
2018-12-19T02:37:50.488Z,85.97
2018-12-19T02:40:20.027Z,85.99
2018-12-19T02:42:50.270Z,86.10
2018-12-19T02:45:20.068Z,86.00
2018-12-19T02:47:49.512Z,85.90
2018-12-19T02:50:20.119Z,85.91
2018-12-19T02:52:50.036Z,85.64
2018-12-19T02:55:19.415Z,86.31
2018-12-19T02:57:49.996Z,85.81
2018-12-19T03:00:19.685Z,85.35
2018-12-19T03:02:52.031Z,85.26
2018-12-19T03:05:23.269Z,85.87
2018-12-19T03:07:52.923Z,85.76
2018-12-19T03:10:22.395Z,86.02
2018-12-19T03:12:53.350Z,85.44
2018-12-19T03:15:22.848Z,85.43
2018-12-19T03:17:53.749Z,85.54
2018-12-19T03:20:24.515Z,85.66
2018-12-19T03:22:54.929Z,85.54
2018-12-19T03:25:24.418Z,85.21
2018-12-19T03:27:55.160Z,84.98
2018-12-19T03:30:25.376Z,85.52
2018-12-19T03:32:54.643Z,84.63
2018-12-19T03:35:24.485Z,85.62
2018-12-19T03:37:55.385Z,85.71
2018-12-19T03:40:24.693Z,85.38
2018-12-19T03:42:54.818Z,85.58
2018-12-19T03:45:24.165Z,85.08
2018-12-19T03:47:53.356Z,85.12
2018-12-19T03:50:22.689Z,85.33
2018-12-19T03:52:51.958Z,85.33
2018-12-19T03:55:22.179Z,85.75
2018-12-19T03:57:54.071Z,85.43
2018-12-19T04:00:23.708Z,84.87
2018-12-19T04:02:53.109Z,84.93
2018-12-19T04:05:22.956Z,85.03
2018-12-19T04:07:52.955Z,85.15
2018-12-19T04:10:24.288Z,84.16
2018-12-19T04:12:55.316Z,84.79
2018-12-19T04:15:26.006Z,84.33
2018-12-19T04:17:57.363Z,84.04
2018-12-19T04:20:26.650Z,84.77
2018-12-19T04:22:58.134Z,83.83
2018-12-19T04:25:28.712Z,83.92
2018-12-19T04:27:59.269Z,84.26
2018-12-19T04:30:28.775Z,84.57
2018-12-19T04:33:00.223Z,84.37
2018-12-19T04:35:29.547Z,84.23
2018-12-19T04:37:59.873Z,83.90
2018-12-19T04:40:30.038Z,84.10
2018-12-19T04:43:00.781Z,84.48
2018-12-19T04:45:30.096Z,84.28
2018-12-19T04:47:59.460Z,83.76
2018-12-19T04:50:30.480Z,84.10
2018-12-19T04:53:00.465Z,83.92
2018-12-19T04:55:30.631Z,83.54
2018-12-19T04:57:59.881Z,84.27
2018-12-19T05:00:29.485Z,83.58
2018-12-19T05:02:58.916Z,84.30
2018-12-19T05:05:28.568Z,84.30
2018-12-19T05:07:58.168Z,83.74
2018-12-19T05:10:27.654Z,84.44
2018-12-19T05:12:56.917Z,84.42
2018-12-19T05:15:27.575Z,84.01
2018-12-19T05:17:57.238Z,83.96
2018-12-19T05:20:27.174Z,84.46
2018-12-19T05:22:56.449Z,83.45
2018-12-19T05:25:25.691Z,84.05
2018-12-19T05:27:55.905Z,83.98
2018-12-19T05:30:25.293Z,83.55
2018-12-19T05:32:55.652Z,84.08
2018-12-19T05:35:25.229Z,83.55
2018-12-19T05:37:54.537Z,84.05
2018-12-19T05:40:24.329Z,84.30
2018-12-19T05:42:54.045Z,84.24
2018-12-19T05:45:23.380Z,84.18
2018-12-19T05:47:52.777Z,84.42
2018-12-19T05:50:24.996Z,84.69
2018-12-19T05:52:54.272Z,84.74
2018-12-19T05:55:23.509Z,84.33
2018-12-19T05:57:52.883Z,84.42
2018-12-19T06:00:24.789Z,84.42
2018-12-19T06:03:01.514Z,84.39
2018-12-19T06:05:31.542Z,84.58
2018-12-19T06:08:00.992Z,84.16
2018-12-19T06:10:31.460Z,84.40
2018-12-19T06:13:00.816Z,83.79
2018-12-19T06:15:30.497Z,83.31
2018-12-19T06:18:00.629Z,83.90
2018-12-19T06:20:30.717Z,84.31
2018-12-19T06:23:01.118Z,83.71
2018-12-19T06:25:30.402Z,83.97
2018-12-19T06:28:05.173Z,84.11
2018-12-19T06:30:34.519Z,84.10
2018-12-19T06:33:03.849Z,84.00
2018-12-19T06:35:33.646Z,83.84
2018-12-19T06:38:03.313Z,83.53
2018-12-19T06:40:32.989Z,83.61
2018-12-19T06:43:03.300Z,82.97
2018-12-19T06:45:33.192Z,83.81
2018-12-19T06:48:02.389Z,83.83
2018-12-19T06:50:32.501Z,83.32
2018-12-19T06:53:02.071Z,83.15
2018-12-19T06:55:33.612Z,82.68
2018-12-19T06:58:03.535Z,83.34
2018-12-19T07:00:32.785Z,83.40
2018-12-19T07:03:02.402Z,83.69
2018-12-19T07:05:32.243Z,83.07
2018-12-19T07:08:02.512Z,83.91
2018-12-19T07:10:38.964Z,83.15
2018-12-19T07:13:05.137Z,83.83
2018-12-19T07:15:35.361Z,83.28
2018-12-19T07:18:04.574Z,84.16
2018-12-19T07:20:34.485Z,84.11
2018-12-19T07:23:03.697Z,84.26
2018-12-19T07:25:33.965Z,83.69
2018-12-19T07:28:03.641Z,83.16
2018-12-19T07:30:33.357Z,82.86
2018-12-19T07:33:03.206Z,83.20
2018-12-19T07:35:33.223Z,83.01
2018-12-19T07:38:03.085Z,83.07
2018-12-19T07:40:32.273Z,82.87
2018-12-19T07:43:01.609Z,82.98
2018-12-19T07:45:31.163Z,82.45
2018-12-19T07:48:00.409Z,82.03
2018-12-19T07:50:30.155Z,81.85
2018-12-19T07:53:01.855Z,82.40
2018-12-19T07:55:36.064Z,81.95
2018-12-19T07:58:05.358Z,81.83
2018-12-19T08:00:34.511Z,82.14
2018-12-19T08:03:03.775Z,81.81
2018-12-19T08:05:34.365Z,80.96
2018-12-19T08:08:04.159Z,81.37
2018-12-19T08:10:34.144Z,81.03
2018-12-19T08:13:03.294Z,81.45
2018-12-19T08:15:32.825Z,80.96
2018-12-19T08:18:02.099Z,81.51
2018-12-19T08:20:31.328Z,81.32
2018-12-19T08:23:00.559Z,80.95
2018-12-19T08:25:32.242Z,80.64
2018-12-19T08:28:01.590Z,80.35
2018-12-19T08:30:30.909Z,80.20
2018-12-19T08:33:00.249Z,80.79
2018-12-19T08:35:29.488Z,80.30
2018-12-19T08:37:59.201Z,80.81
2018-12-19T08:40:30.730Z,80.23
2018-12-19T08:43:01.540Z,80.01
2018-12-19T08:45:33.477Z,80.32
2018-12-19T08:48:03.303Z,79.76
2018-12-19T08:50:32.611Z,80.37
2018-12-19T08:53:02.172Z,80.23
2018-12-19T08:55:32.758Z,79.93
2018-12-19T08:58:02.807Z,80.23
2018-12-19T09:00:34.521Z,79.54
2018-12-19T09:03:04.554Z,80.18
2018-12-19T09:05:33.973Z,80.11
2018-12-19T09:08:05.018Z,79.94
2018-12-19T09:10:34.384Z,79.43
2018-12-19T09:13:04.336Z,79.21
2018-12-19T09:15:54.196Z,79.10
2018-12-19T09:18:24.448Z,78.70
2018-12-19T09:27:33.106Z,78.57
2018-12-19T09:30:02.545Z,78.13
2018-12-19T09:32:32.547Z,78.48
2018-12-19T09:35:02.625Z,78.70
2018-12-19T09:37:32.534Z,78.59
2018-12-19T09:40:01.826Z,78.17
2018-12-19T09:42:31.190Z,78.48
2018-12-19T09:45:01.782Z,78.61
2018-12-19T09:47:32.644Z,78.49
2018-12-19T09:50:01.988Z,78.80
2018-12-19T09:52:32.081Z,78.43
2018-12-19T09:55:01.393Z,78.65
2018-12-19T09:57:32.421Z,78.04
2018-12-19T10:02:37.869Z,78.15
2018-12-19T10:05:07.328Z,78.58
2018-12-19T10:07:42.814Z,78.27
2018-12-19T10:10:13.492Z,77.70
2018-12-19T10:12:42.847Z,78.30
2018-12-19T10:15:12.844Z,78.12
2018-12-19T10:17:42.200Z,77.77
2018-12-19T10:20:12.250Z,77.73
2018-12-19T10:22:41.534Z,77.52
2018-12-19T10:25:14.755Z,77.75
2018-12-19T10:27:43.973Z,77.81
2018-12-19T10:30:14.671Z,77.76
2018-12-19T10:32:43.966Z,77.59
2018-12-19T10:35:13.258Z,77.64
2018-12-19T10:37:42.559Z,77.74
2018-12-19T10:40:13.231Z,77.55
2018-12-19T10:42:42.512Z,77.30
2018-12-19T10:45:12.049Z,77.51
2018-12-19T10:47:41.726Z,77.52
2018-12-19T10:50:11.875Z,77.37
2018-12-19T10:52:41.268Z,77.63
2018-12-19T10:55:10.642Z,77.03
2018-12-19T10:57:39.978Z,77.34
2018-12-19T11:00:18.151Z,77.50
2018-12-19T11:02:47.912Z,77.60
2018-12-19T11:05:17.184Z,77.60
2018-12-19T11:07:47.731Z,77.18
2018-12-19T11:10:17.630Z,77.36
2018-12-19T11:12:46.844Z,76.84
2018-12-19T11:15:16.110Z,76.62
2018-12-19T11:17:45.809Z,76.84
2018-12-19T11:20:15.021Z,76.86
2018-12-19T11:22:45.367Z,76.86
2018-12-19T11:25:14.645Z,76.71
2018-12-19T11:27:44.556Z,76.00
2018-12-19T11:30:15.592Z,75.23
2018-12-19T11:32:45.570Z,76.10
2018-12-19T11:35:16.802Z,76.73
2018-12-19T11:37:46.909Z,76.78
2018-12-19T11:40:16.568Z,77.11
2018-12-19T11:42:45.875Z,76.84
2018-12-19T11:45:16.582Z,76.27
2018-12-19T11:47:45.884Z,76.07
2018-12-19T11:50:16.070Z,76.24
2018-12-19T11:52:45.979Z,76.45
2018-12-19T11:55:15.625Z,76.21
2018-12-19T11:57:44.873Z,76.18
2018-12-19T12:00:15.299Z,75.67
2018-12-19T12:09:45.656Z,75.29
2018-12-19T12:12:16.947Z,75.36
2018-12-19T12:14:46.699Z,75.29
2018-12-19T12:17:16.172Z,75.40
2018-12-19T12:19:46.237Z,75.59
2018-12-19T12:22:15.752Z,75.60
2018-12-19T12:24:45.738Z,75.44
2018-12-19T12:27:14.955Z,75.62
2018-12-19T12:29:44.395Z,75.28
2018-12-19T12:32:14.603Z,74.68
2018-12-19T12:34:44.323Z,74.90
2018-12-19T12:37:14.732Z,75.03
2018-12-19T12:39:45.066Z,75.54
2018-12-19T12:42:16.657Z,75.59
2018-12-19T12:44:47.606Z,75.06
2018-12-19T12:47:16.846Z,75.63
2018-12-19T12:49:46.267Z,75.17
2018-12-19T12:52:17.430Z,75.51
2018-12-19T12:54:48.788Z,75.35
2018-12-19T12:57:18.429Z,75.85
2018-12-19T12:59:48.439Z,75.10
2018-12-19T13:02:18.489Z,75.25
2018-12-19T13:04:47.791Z,75.39
2018-12-19T13:07:18.129Z,75.52
2018-12-19T13:09:47.681Z,76.18
2018-12-19T13:12:18.627Z,75.88
2018-12-19T13:14:47.878Z,75.49
2018-12-19T13:17:17.674Z,76.05
2018-12-19T13:19:47.030Z,76.15
2018-12-19T13:22:19.965Z,75.78
2018-12-19T13:24:49.188Z,76.26
2018-12-19T13:27:20.038Z,75.33
2018-12-19T13:29:49.777Z,75.78
2018-12-19T13:32:19.853Z,75.94
2018-12-19T13:34:49.291Z,75.87
2018-12-19T13:37:18.610Z,76.01
2018-12-19T13:39:53.351Z,75.85
2018-12-19T13:42:22.643Z,76.27
2018-12-19T13:44:52.480Z,76.66
2018-12-19T13:47:21.972Z,76.12
2018-12-19T13:49:53.293Z,75.85
2018-12-19T13:52:23.635Z,76.13
2018-12-19T13:54:54.511Z,76.20
2018-12-19T13:57:28.337Z,76.20
2018-12-19T13:59:57.867Z,76.68
2018-12-19T14:02:27.147Z,76.22
2018-12-19T14:04:56.507Z,76.61
2018-12-19T14:07:27.901Z,76.66
2018-12-19T14:09:58.150Z,76.12
2018-12-19T14:12:28.419Z,76.40
2018-12-19T14:14:59.164Z,76.53
2018-12-19T14:17:29.543Z,76.70
2018-12-19T14:19:59.074Z,76.50
2018-12-19T14:22:28.546Z,76.81
2018-12-19T14:24:58.944Z,75.97
2018-12-19T14:27:29.675Z,76.80
2018-12-19T14:29:59.955Z,76.65
2018-12-19T14:32:29.351Z,76.68
2018-12-19T14:37:35.252Z,76.41
2018-12-19T14:40:05.814Z,77.15
2018-12-19T14:42:35.108Z,76.68
2018-12-19T14:45:06.273Z,76.73
2018-12-19T14:47:35.801Z,76.85
2018-12-19T14:50:09.140Z,77.13
2018-12-19T14:52:40.345Z,76.95
2018-12-19T14:55:09.517Z,76.74
2018-12-19T14:57:39.027Z,77.36
2018-12-19T15:00:10.315Z,77.62
2018-12-19T15:02:40.858Z,76.97
2018-12-19T15:05:10.730Z,76.87
2018-12-19T15:07:40.147Z,77.11
2018-12-19T15:10:10.310Z,77.32
2018-12-19T15:12:40.470Z,77.37
2018-12-19T15:15:10.703Z,77.28
2018-12-19T15:17:39.967Z,77.83
2018-12-19T15:20:09.334Z,77.63
2018-12-19T15:22:39.854Z,78.19
2018-12-19T15:25:10.955Z,77.69
2018-12-19T15:27:42.023Z,77.34
2018-12-19T15:30:11.558Z,78.26
2018-12-19T15:32:43.098Z,77.74
2018-12-19T15:35:12.579Z,78.24
2018-12-19T15:37:41.813Z,77.94
2018-12-19T15:40:11.629Z,77.30
2018-12-19T15:42:42.877Z,77.32
2018-12-19T15:45:12.455Z,77.63
2018-12-19T15:47:42.610Z,77.74
2018-12-19T15:50:11.992Z,77.39
2018-12-19T15:52:41.280Z,78.00
2018-12-19T15:55:11.465Z,77.57
2018-12-19T15:57:41.780Z,77.99
2018-12-19T16:00:15.764Z,78.06
2018-12-19T16:02:45.088Z,77.91
2018-12-19T16:05:17.332Z,78.36
2018-12-19T16:07:46.694Z,78.10
2018-12-19T16:10:16.479Z,78.61
2018-12-19T16:12:46.387Z,78.32
2018-12-19T16:15:16.629Z,78.48
2018-12-19T16:17:48.263Z,78.48
2018-12-19T16:20:18.680Z,78.72
2018-12-19T16:22:48.067Z,79.12
2018-12-19T16:25:17.897Z,79.28
2018-12-19T16:27:49.969Z,79.01
2018-12-19T16:30:20.844Z,79.56
2018-12-19T16:32:50.184Z,79.11
2018-12-19T16:35:19.469Z,79.51
2018-12-19T16:37:48.876Z,78.86
2018-12-19T16:40:18.205Z,79.28
2018-12-19T16:42:47.997Z,79.70
2018-12-19T16:45:23.087Z,78.89
2018-12-19T16:47:54.643Z,79.21
2018-12-19T16:50:24.476Z,79.77
2018-12-19T16:52:53.833Z,80.05
2018-12-19T16:55:24.338Z,80.27
2018-12-19T16:57:54.156Z,80.29
2018-12-19T17:00:24.673Z,80.37
2018-12-19T17:02:53.917Z,81.63
2018-12-19T17:05:23.778Z,81.78
2018-12-19T17:07:53.109Z,81.31
2018-12-19T17:10:22.734Z,81.53
2018-12-19T17:12:52.997Z,82.40
2018-12-19T17:15:24.147Z,82.33
2018-12-19T17:17:53.669Z,82.42
2018-12-19T17:20:22.876Z,82.55
2018-12-19T17:22:52.214Z,82.10
2018-12-19T17:25:21.798Z,81.94
2018-12-19T17:27:51.199Z,82.37
2018-12-19T17:30:21.311Z,82.39
2018-12-19T17:32:50.614Z,82.33
2018-12-19T17:35:20.790Z,82.34
2018-12-19T17:37:50.142Z,83.01
2018-12-19T17:40:20.933Z,82.42
2018-12-19T17:42:50.956Z,82.88
2018-12-19T17:45:22.133Z,82.72
2018-12-19T17:47:53.851Z,82.62
2018-12-19T17:50:23.451Z,82.69
2018-12-19T17:52:53.201Z,82.51
2018-12-19T17:55:22.878Z,82.66
2018-12-19T17:57:52.536Z,82.26
2018-12-19T18:00:22.292Z,82.50
2018-12-19T18:02:51.662Z,83.37
2018-12-19T18:05:20.976Z,83.73
2018-12-19T18:07:53.189Z,82.80
2018-12-19T18:10:22.609Z,83.86
2018-12-19T18:12:53.508Z,83.69
2018-12-19T18:15:23.210Z,83.21
2018-12-19T18:17:52.530Z,83.57
2018-12-19T18:20:22.774Z,84.17
2018-12-19T18:22:52.034Z,84.21
2018-12-19T18:25:21.640Z,84.05
2018-12-19T18:27:51.057Z,84.18
2018-12-19T18:30:20.374Z,84.72
2018-12-19T18:32:50.833Z,84.82
2018-12-19T18:35:21.099Z,84.69
2018-12-19T18:37:50.397Z,85.26
2018-12-19T18:40:20.276Z,84.20
2018-12-19T18:42:50.620Z,84.62
2018-12-19T18:45:20.514Z,84.30
2018-12-19T18:47:51.064Z,84.61
2018-12-19T18:50:21.384Z,84.44
2018-12-19T18:52:52.129Z,84.17
2018-12-19T18:55:22.308Z,83.95
2018-12-19T18:57:52.099Z,84.76
2018-12-19T19:00:33.255Z,84.75
2018-12-19T19:03:02.626Z,84.93
2018-12-19T19:05:36.396Z,85.89
2018-12-19T19:08:07.973Z,85.73
2018-12-19T19:10:37.952Z,85.62
2018-12-19T19:13:08.768Z,84.89
2018-12-19T19:15:38.070Z,84.95
2018-12-19T19:18:07.371Z,84.67
2018-12-19T19:20:37.539Z,84.85
2018-12-19T19:23:09.801Z,84.92
2018-12-19T19:25:41.049Z,85.21
2018-12-19T19:28:12.122Z,84.85
2018-12-19T19:30:41.525Z,84.40
2018-12-19T19:33:11.544Z,84.07
2018-12-19T19:35:43.238Z,84.10
2018-12-19T19:38:13.342Z,83.87
2018-12-19T19:40:43.580Z,83.67
2018-12-19T19:43:12.915Z,84.30
2018-12-19T19:45:42.731Z,84.17
2018-12-19T19:48:12.949Z,83.57
2018-12-19T19:50:43.830Z,83.65
2018-12-19T19:53:13.154Z,83.06
2018-12-19T19:55:42.369Z,83.56
2018-12-19T19:58:11.676Z,83.63
2018-12-19T20:00:41.314Z,83.85
2018-12-19T20:03:12.797Z,83.80
2018-12-19T20:05:44.068Z,83.40
2018-12-19T20:08:14.800Z,84.14
2018-12-19T20:10:45.402Z,84.16
2018-12-19T20:13:15.508Z,84.62
2018-12-19T20:15:45.630Z,84.92
2018-12-19T20:18:16.266Z,84.42
2018-12-19T20:20:45.582Z,84.47
2018-12-19T20:23:15.295Z,84.48
2018-12-19T20:25:45.257Z,85.19
2018-12-19T20:28:17.482Z,84.87
2018-12-19T20:30:46.699Z,84.73
2018-12-19T20:33:16.146Z,85.11
2018-12-19T20:35:46.349Z,84.57
2018-12-19T20:38:16.796Z,85.12
2018-12-19T20:40:47.693Z,84.53
2018-12-19T20:43:17.675Z,84.85
2018-12-19T20:45:47.160Z,84.18
2018-12-19T20:48:16.412Z,85.25
2018-12-19T20:50:46.021Z,84.83
2018-12-19T20:53:15.981Z,84.49
2018-12-19T20:55:46.952Z,84.79
2018-12-19T20:58:16.264Z,84.81
2018-12-19T21:00:46.928Z,83.79
2018-12-19T21:03:17.286Z,83.91
2018-12-19T21:05:46.589Z,84.02
2018-12-19T21:08:17.141Z,83.87
2018-12-19T21:10:47.162Z,84.38
2018-12-19T21:13:16.975Z,83.71
2018-12-19T21:15:47.345Z,83.94
2018-12-19T21:18:22.891Z,83.83
2018-12-19T21:20:52.829Z,83.55
2018-12-19T21:23:22.136Z,83.36
2018-12-19T21:25:51.921Z,84.02
2018-12-19T21:28:22.703Z,83.57
2018-12-19T21:30:52.090Z,84.38
2018-12-19T21:33:22.026Z,83.98
2018-12-19T21:35:51.926Z,83.63
2018-12-19T21:38:22.606Z,83.61
2018-12-19T21:40:52.059Z,84.01
2018-12-19T21:43:21.733Z,83.70
2018-12-19T21:45:51.921Z,83.30
2018-12-19T21:48:21.972Z,83.80
2018-12-19T21:50:51.268Z,83.69
2018-12-19T21:53:21.902Z,83.94
2018-12-19T21:55:51.723Z,83.87
2018-12-19T21:58:22.202Z,83.84
2018-12-19T22:00:55.533Z,83.73
2018-12-19T22:03:26.073Z,83.77
2018-12-19T22:05:57.826Z,83.95
2018-12-19T22:08:30.483Z,83.73
2018-12-19T22:11:00.216Z,84.08
2018-12-19T22:13:34.092Z,84.20
2018-12-19T22:16:04.868Z,83.68
2018-12-19T22:18:39.684Z,83.84
2018-12-19T22:21:11.149Z,84.27
2018-12-19T22:23:42.282Z,83.57
2018-12-19T22:26:12.901Z,83.89
2018-12-19T22:28:42.831Z,83.91
2018-12-19T22:31:12.199Z,83.86
2018-12-19T22:33:42.805Z,83.91
2018-12-19T22:36:13.500Z,84.02
2018-12-19T22:38:43.746Z,83.67
2018-12-19T22:41:16.867Z,83.85
2018-12-19T22:43:46.216Z,84.02
2018-12-19T22:46:16.945Z,83.76
2018-12-19T22:48:47.973Z,83.30
2018-12-19T22:51:17.478Z,83.56
2018-12-19T22:53:46.887Z,83.86
2018-12-19T22:56:16.322Z,84.17
2018-12-19T22:58:47.971Z,84.19
2018-12-19T23:01:23.310Z,84.10
2018-12-19T23:03:58.160Z,84.37
2018-12-19T23:06:29.596Z,84.64
2018-12-19T23:08:59.573Z,83.93
2018-12-19T23:11:30.211Z,84.24
2018-12-19T23:14:01.332Z,84.44
2018-12-19T23:16:36.107Z,84.87
2018-12-19T23:19:12.073Z,84.97
2018-12-19T23:21:48.040Z,84.89
2018-12-19T23:24:24.013Z,84.62
2018-12-19T23:26:55.121Z,84.95
2018-12-19T23:29:29.063Z,84.55
2018-12-19T23:31:58.542Z,84.43
2018-12-19T23:34:28.524Z,83.91
2018-12-19T23:37:00.087Z,84.29
2018-12-19T23:39:32.797Z,83.91
2018-12-19T23:42:02.468Z,84.44
2018-12-19T23:44:34.319Z,84.80
2018-12-19T23:47:04.204Z,84.52
2018-12-19T23:49:35.050Z,84.35
2018-12-19T23:52:04.857Z,84.48
2018-12-19T23:54:34.387Z,85.20
2018-12-19T23:57:03.854Z,84.22
2018-12-19T23:59:33.239Z,84.92
